Time;durP1;ratioP1;P1;durP2;ratioP2;P2;SDS_P1;SDS_P2;PMS_P1;PMS_P2;Temp;Humidity;BMP_temperature;BMP_pressure;BME280_temperature;BME280_humidity;BME280_pressure;Samples;Min_cycle;Max_cycle;Signal;HPM_P1;HPM_P2
2022/03/31 00:00:47;;;;;;;25.33;20.23;;;9.20;99.90;;;;;;5094587;28;20173;-60
2022/03/31 00:03:16;;;;;;;24.70;19.40;;;9.20;99.90;;;;;;5094885;28;20185;-59
2022/03/31 00:05:42;;;;;;;24.20;20.38;;;9.20;99.90;;;;;;5094270;28;20205;-60
2022/03/31 00:08:19;;;;;;;22.48;18.40;;;9.20;99.90;;;;;;5094223;28;20174;-60
2022/03/31 00:10:53;;;;;;;24.20;19.05;;;9.20;99.90;;;;;;5094385;28;20189;-60
2022/03/31 00:13:25;;;;;;;21.80;18.08;;;9.20;99.90;;;;;;5094280;28;20210;-60
2022/03/31 00:15:53;;;;;;;25.52;19.63;;;9.10;99.90;;;;;;5076032;28;20180;-60
2022/03/31 00:18:19;;;;;;;23.65;19.80;;;9.10;99.90;;;;;;5094223;28;20646;-60
2022/03/31 00:20:45;;;;;;;22.48;18.30;;;9.20;99.90;;;;;;5094082;28;20170;-59
2022/03/31 00:23:11;;;;;;;21.27;17.20;;;9.20;99.90;;;;;;5094121;28;20180;-59
2022/03/31 00:25:37;;;;;;;19.70;16.17;;;9.10;99.90;;;;;;5059247;28;20205;-59
2022/03/31 00:28:05;;;;;;;15.20;13.60;;;9.10;99.90;;;;;;5076031;28;20174;-59
2022/03/31 00:30:32;;;;;;;15.32;12.73;;;9.10;99.90;;;;;;5076155;28;20185;-59
2022/03/31 00:32:58;;;;;;;15.68;13.43;;;9.10;99.90;;;;;;5094123;28;20185;-59
2022/03/31 00:35:24;;;;;;;14.38;12.45;;;9.00;99.90;;;;;;5094029;28;20215;-60
2022/03/31 00:37:50;;;;;;;14.50;11.90;;;9.00;99.90;;;;;;5075842;28;20362;-60
2022/03/31 00:40:19;;;;;;;13.68;11.40;;;8.90;99.90;;;;;;5093728;28;20193;-60
2022/03/31 00:42:51;;;;;;;13.48;11.23;;;8.90;99.90;;;;;;5094064;28;20169;-60
2022/03/31 00:45:25;;;;;;;11.73;10.52;;;8.90;99.90;;;;;;5093150;28;20212;-60
2022/03/31 00:47:52;;;;;;;13.73;10.95;;;9.00;99.90;;;;;;5094122;28;20235;-60
2022/03/31 00:50:19;;;;;;;9.85;8.50;;;8.90;99.90;;;;;;5093734;28;20184;-60
2022/03/31 00:52:45;;;;;;;9.48;7.75;;;8.90;99.90;;;;;;5075546;28;20207;-60
2022/03/31 00:55:13;;;;;;;8.88;7.97;;;8.80;99.90;;;;;;5093581;28;20540;-60
2022/03/31 00:57:39;;;;;;;7.95;6.93;;;8.70;99.90;;;;;;5075244;28;20711;-60
2022/03/31 01:00:09;;;;;;;8.48;7.68;;;8.70;99.90;;;;;;5075733;28;20223;-60
2022/03/31 01:02:41;;;;;;;7.57;6.72;;;8.70;99.90;;;;;;5093668;28;20170;-60
2022/03/31 01:05:08;;;;;;;7.28;6.57;;;8.60;99.90;;;;;;5093322;28;20221;-60
2022/03/31 01:07:35;;;;;;;7.00;6.30;;;8.60;99.90;;;;;;5075333;28;20223;-59
2022/03/31 01:10:01;;;;;;;6.40;5.80;;;8.60;99.90;;;;;;5093606;28;20177;-60
2022/03/31 01:12:27;;;;;;;5.68;5.18;;;8.60;99.90;;;;;;5093634;28;20170;-59
2022/03/31 01:15:17;;;;;;;8.57;5.45;;;8.50;99.90;;;;;;5075288;28;20178;-59
2022/03/31 01:17:44;;;;;;;6.38;4.82;;;8.40;99.90;;;;;;5093298;28;20193;-59
2022/03/31 01:20:14;;;;;;;6.00;4.82;;;8.30;99.90;;;;;;5075006;28;20559;-59
2022/03/31 01:22:42;;;;;;;5.55;4.95;;;8.30;99.90;;;;;;5093101;28;20263;-59
2022/03/31 01:25:09;;;;;;;6.75;5.32;;;8.30;99.90;;;;;;5093331;28;20699;-59
2022/03/31 01:27:37;;;;;;;5.15;4.60;;;8.30;99.90;;;;;;5075072;28;20178;-59
2022/03/31 01:30:06;;;;;;;5.25;4.75;;;8.30;99.90;;;;;;5093182;28;20194;-59
2022/03/31 01:32:32;;;;;;;5.45;4.90;;;8.20;99.90;;;;;;5093193;28;20552;-59
2022/03/31 01:34:58;;;;;;;5.80;5.28;;;8.20;99.90;;;;;;5092998;28;20181;-59
2022/03/31 01:37:24;;;;;;;5.38;4.88;;;8.10;99.90;;;;;;5075653;28;20567;-59
2022/03/31 01:39:49;;;;;;;6.25;5.25;;;8.00;99.90;;;;;;5093000;28;20178;-59
2022/03/31 01:42:15;;;;;;;5.65;5.15;;;7.90;99.90;;;;;;5093200;28;20213;-59
2022/03/31 01:44:41;;;;;;;7.28;4.88;;;7.90;99.90;;;;;;5093058;28;20177;-59
2022/03/31 01:47:07;;;;;;;6.10;5.50;;;7.80;99.90;;;;;;5093042;28;20178;-59
2022/03/31 01:49:36;;;;;;;6.32;5.07;;;7.80;99.90;;;;;;5074753;28;20178;-60
2022/03/31 01:52:02;;;;;;;5.57;5.00;;;7.80;99.90;;;;;;5093115;28;20170;-60
2022/03/31 01:54:27;;;;;;;4.97;4.18;;;7.80;99.90;;;;;;5093094;28;20181;-59
2022/03/31 01:56:54;;;;;;;5.07;4.57;;;7.60;99.90;;;;;;5092885;28;20625;-59
2022/03/31 01:59:20;;;;;;;5.30;4.47;;;7.40;99.90;;;;;;5074932;28;20189;-59
2022/03/31 02:01:45;;;;;;;6.60;4.65;;;7.10;99.90;;;;;;5074986;28;20177;-59
2022/03/31 02:04:11;;;;;;;5.20;4.32;;;7.00;99.90;;;;;;5092776;28;20525;-59
2022/03/31 02:06:36;;;;;;;6.10;4.80;;;6.80;99.90;;;;;;5092859;28;20242;-59
2022/03/31 02:09:02;;;;;;;5.63;4.85;;;6.80;99.90;;;;;;5074941;28;20674;-59
2022/03/31 02:11:28;;;;;;;6.97;5.20;;;6.80;99.90;;;;;;5092877;28;20612;-59
2022/03/31 02:13:54;;;;;;;6.82;5.57;;;6.80;99.90;;;;;;5058198;28;20186;-59
2022/03/31 02:16:20;;;;;;;5.85;4.85;;;6.70;99.90;;;;;;5075049;28;20179;-59
2022/03/31 02:18:45;;;;;;;6.47;4.88;;;6.60;99.90;;;;;;5074983;28;20174;-59
2022/03/31 02:21:11;;;;;;;5.18;4.32;;;6.50;99.90;;;;;;5092649;28;20185;-58
2022/03/31 02:23:37;;;;;;;4.90;4.22;;;6.20;99.90;;;;;;5092669;28;20268;-58
2022/03/31 02:26:03;;;;;;;5.78;4.38;;;6.10;99.90;;;;;;5092645;28;20300;-58
2022/03/31 02:28:28;;;;;;;5.05;4.53;;;6.00;99.90;;;;;;5074553;28;20188;-58
2022/03/31 02:30:55;;;;;;;9.02;4.65;;;5.90;99.90;;;;;;5093974;28;20230;-58
2022/03/31 02:33:21;;;;;;;6.43;4.82;;;5.80;99.90;;;;;;5077820;28;20188;-59
2022/03/31 02:35:47;;;;;;;5.10;4.20;;;5.80;99.90;;;;;;5078142;28;20535;-58
2022/03/31 02:38:13;;;;;;;4.57;4.05;;;5.80;99.90;;;;;;5096351;28;20191;-58
2022/03/31 02:40:38;;;;;;;5.30;3.90;;;5.60;99.90;;;;;;5096130;28;20261;-59
2022/03/31 02:43:04;;;;;;;5.20;4.03;;;5.40;99.90;;;;;;5077974;28;20173;-58
2022/03/31 02:45:30;;;;;;;3.53;3.23;;;5.40;99.90;;;;;;5077978;28;20210;-59
2022/03/31 02:47:55;;;;;;;4.27;3.37;;;5.40;99.90;;;;;;5077871;28;20180;-59
2022/03/31 02:50:21;;;;;;;3.97;3.20;;;5.50;99.90;;;;;;5096061;28;20181;-59
2022/03/31 02:55:31;;;;;;;3.70;3.40;;;5.30;99.90;;;;;;5095712;28;20666;-59
2022/03/31 02:58:02;;;;;;;4.37;2.97;;;5.20;99.90;;;;;;5095646;28;20177;-59
2022/03/31 03:00:32;;;;;;;3.43;3.13;;;5.10;99.90;;;;;;5078379;28;20177;-58
2022/03/31 03:02:59;;;;;;;3.30;2.87;;;5.00;99.90;;;;;;5095601;28;20174;-59
2022/03/31 03:05:24;;;;;;;3.20;2.90;;;4.90;99.90;;;;;;5095817;28;20209;-60
2022/03/31 03:07:50;;;;;;;4.10;2.70;;;4.70;99.90;;;;;;5077541;28;20264;-59
2022/03/31 03:10:16;;;;;;;4.70;3.57;;;4.60;99.90;;;;;;5095622;28;20594;-59
2022/03/31 03:12:42;;;;;;;5.20;4.03;;;4.50;99.90;;;;;;5095524;28;20178;-59
2022/03/31 03:15:09;;;;;;;7.57;4.27;;;4.30;99.90;;;;;;5095234;28;20191;-58
2022/03/31 03:17:39;;;;;;;4.73;4.33;;;4.10;99.90;;;;;;5077494;28;20188;-58
2022/03/31 03:20:05;;;;;;;5.23;4.80;;;4.00;99.90;;;;;;5095602;28;20166;-58
2022/03/31 03:22:32;;;;;;;5.33;4.90;;;3.90;99.90;;;;;;5077177;28;20181;-59
2022/03/31 03:24:58;;;;;;;5.40;4.90;;;3.80;99.90;;;;;;5095526;28;20271;-59
2022/03/31 03:27:25;;;;;;;4.97;4.57;;;3.70;99.90;;;;;;5076915;28;20711;-58
2022/03/31 03:29:51;;;;;;;5.17;4.67;;;3.80;99.90;;;;;;5076921;28;20188;-58
2022/03/31 03:32:18;;;;;;;4.97;4.57;;;3.70;99.90;;;;;;5095188;28;20257;-58
2022/03/31 03:34:43;;;;;;;4.90;4.50;;;3.70;99.90;;;;;;5094837;28;20171;-58
2022/03/31 03:37:09;;;;;;;5.30;4.80;;;3.80;99.90;;;;;;5076905;28;20276;-57
2022/03/31 03:39:35;;;;;;;7.37;5.40;;;3.80;99.90;;;;;;5094995;28;20544;-58
2022/03/31 03:42:02;;;;;;;5.67;5.17;;;3.80;99.90;;;;;;5094304;28;20181;-58
2022/03/31 03:44:27;;;;;;;5.37;4.87;;;3.80;99.90;;;;;;5094770;28;20185;-58
2022/03/31 03:46:53;;;;;;;5.47;4.20;;;3.80;99.90;;;;;;5094892;28;20668;-58
2022/03/31 03:49:19;;;;;;;4.77;4.27;;;3.90;99.90;;;;;;5076628;28;20181;-58
2022/03/31 03:51:45;;;;;;;4.70;4.30;;;3.80;99.90;;;;;;5094675;28;20173;-57
2022/03/31 03:54:11;;;;;;;5.00;4.60;;;3.80;99.90;;;;;;5094603;28;20266;-58
2022/03/31 03:56:38;;;;;;;4.40;4.03;;;3.70;99.90;;;;;;5094054;28;20282;-57
2022/03/31 03:59:04;;;;;;;3.40;3.10;;;3.70;99.90;;;;;;5094472;28;20215;-58
2022/03/31 04:01:30;;;;;;;3.90;3.60;;;3.70;99.90;;;;;;5076503;28;20254;-58
2022/03/31 04:03:57;;;;;;;3.77;3.23;;;3.60;99.90;;;;;;5094941;28;20624;-59
2022/03/31 04:06:23;;;;;;;3.60;3.30;;;3.60;99.90;;;;;;5094388;28;20215;-58
2022/03/31 04:08:49;;;;;;;3.63;3.33;;;3.60;99.90;;;;;;5094177;28;20624;-57
2022/03/31 04:11:15;;;;;;;3.50;3.20;;;3.60;99.90;;;;;;5094260;28;20174;-57
2022/03/31 04:13:40;;;;;;;3.60;3.30;;;3.50;99.90;;;;;;5094488;28;20204;-58
2022/03/31 04:16:06;;;;;;;4.10;3.70;;;3.40;99.90;;;;;;5094430;28;20176;-58
2022/03/31 04:18:32;;;;;;;3.77;3.47;;;3.40;99.90;;;;;;5076187;28;20548;-58
2022/03/31 04:21:01;;;;;;;3.90;3.60;;;3.40;99.90;;;;;;5094205;28;20178;-58
2022/03/31 04:23:26;;;;;;;3.93;3.53;;;3.50;99.90;;;;;;5094137;28;20182;-60
2022/03/31 04:25:52;;;;;;;4.00;3.70;;;3.50;99.90;;;;;;5093804;28;20206;-58
2022/03/31 04:28:18;;;;;;;3.70;3.40;;;3.50;99.90;;;;;;5094220;28;20255;-58
2022/03/31 04:30:44;;;;;;;3.43;3.13;;;3.50;99.90;;;;;;5094050;28;20216;-58
2022/03/31 04:33:09;;;;;;;3.43;3.13;;;3.40;99.90;;;;;;5093780;28;20200;-59
2022/03/31 04:35:36;;;;;;;3.57;3.27;;;3.30;99.90;;;;;;5059124;28;20635;-59
2022/03/31 04:38:03;;;;;;;4.00;3.60;;;3.30;99.90;;;;;;5093752;28;20185;-59
2022/03/31 04:40:28;;;;;;;3.50;3.20;;;3.30;99.90;;;;;;5093678;28;20209;-59
2022/03/31 04:42:54;;;;;;;3.30;3.03;;;3.30;99.90;;;;;;5075748;28;20640;-58
2022/03/31 04:45:20;;;;;;;3.70;3.40;;;3.40;99.90;;;;;;5093702;28;20260;-57
2022/03/31 04:47:46;;;;;;;3.80;3.50;;;3.50;99.90;;;;;;5093756;28;20177;-59
2022/03/31 04:50:13;;;;;;;4.07;3.77;;;3.40;99.90;;;;;;5093728;28;20177;-60
2022/03/31 04:52:39;;;;;;;4.67;3.80;;;3.40;99.90;;;;;;5093136;28;20252;-59
2022/03/31 04:55:05;;;;;;;5.03;4.63;;;3.40;99.90;;;;;;5074933;28;20188;-60
2022/03/31 04:57:31;;;;;;;4.90;4.43;;;3.50;99.90;;;;;;5093623;28;20177;-59
2022/03/31 04:59:57;;;;;;;5.77;5.27;;;3.50;99.90;;;;;;5093713;28;20500;-60
2022/03/31 05:02:23;;;;;;;6.27;4.80;;;3.50;99.90;;;;;;5075686;28;20173;-59
2022/03/31 05:04:48;;;;;;;5.77;5.20;;;3.60;99.90;;;;;;5073277;28;20642;-59
2022/03/31 05:07:14;;;;;;;5.00;4.60;;;3.60;99.90;;;;;;5093435;28;20184;-57
2022/03/31 05:09:41;;;;;;;5.20;4.70;;;3.60;99.90;;;;;;5093306;28;20582;-59
2022/03/31 05:12:08;;;;;;;4.90;4.50;;;3.60;99.90;;;;;;5093510;28;20628;-59
2022/03/31 05:14:34;;;;;;;4.90;4.50;;;3.50;99.90;;;;;;5093407;28;20244;-58
2022/03/31 05:17:01;;;;;;;4.97;4.57;;;3.60;99.90;;;;;;5093444;28;20208;-57
2022/03/31 05:19:26;;;;;;;4.60;4.20;;;3.60;99.90;;;;;;5093258;28;20184;-58
2022/03/31 05:21:52;;;;;;;4.97;4.57;;;3.60;99.90;;;;;;5093262;28;20173;-59
2022/03/31 05:24:18;;;;;;;5.03;4.63;;;3.60;99.90;;;;;;5093179;28;20248;-58
2022/03/31 05:26:43;;;;;;;5.23;4.73;;;3.50;99.90;;;;;;5093277;28;20243;-59
2022/03/31 05:29:09;;;;;;;5.17;4.67;;;3.50;99.90;;;;;;5093371;28;20207;-57
2022/03/31 05:31:35;;;;;;;4.90;4.50;;;3.50;99.90;;;;;;5093510;28;20181;-59
2022/03/31 05:34:00;;;;;;;4.73;4.33;;;3.60;99.90;;;;;;5093178;28;20182;-59
2022/03/31 05:36:26;;;;;;;4.83;4.43;;;3.60;99.90;;;;;;5093164;28;20226;-59
2022/03/31 05:38:52;;;;;;;4.50;4.10;;;3.60;99.90;;;;;;5092996;28;20648;-57
2022/03/31 05:41:17;;;;;;;5.10;4.60;;;3.50;99.90;;;;;;5093343;28;20501;-58
2022/03/31 05:43:43;;;;;;;5.10;4.60;;;3.60;99.90;;;;;;5093486;28;20176;-59
2022/03/31 05:46:09;;;;;;;5.20;4.70;;;3.60;99.90;;;;;;5093152;28;20217;-58
2022/03/31 05:48:34;;;;;;;4.33;3.93;;;3.60;99.90;;;;;;5093048;28;20179;-58
2022/03/31 05:51:00;;;;;;;4.50;4.10;;;3.60;99.90;;;;;;5092884;28;20173;-58
2022/03/31 05:53:26;;;;;;;4.47;3.97;;;3.60;99.90;;;;;;5092917;28;20172;-59
2022/03/31 05:55:52;;;;;;;4.53;4.13;;;3.70;99.90;;;;;;5093105;28;20181;-58
2022/03/31 05:58:18;;;;;;;4.93;4.43;;;3.70;99.90;;;;;;5092891;28;20179;-58
2022/03/31 06:00:43;;;;;;;4.93;4.53;;;3.70;99.90;;;;;;5092941;28;20627;-58
2022/03/31 06:03:09;;;;;;;6.77;6.13;;;3.70;99.90;;;;;;5093103;28;20230;-58
2022/03/31 06:05:35;;;;;;;5.70;5.20;;;3.70;99.90;;;;;;5077593;28;20218;-59
2022/03/31 06:08:00;;;;;;;6.93;6.33;;;3.70;99.90;;;;;;5062091;28;20179;-59
2022/03/31 06:10:26;;;;;;;5.47;4.97;;;3.80;99.90;;;;;;5096908;28;20184;-59
2022/03/31 06:12:53;;;;;;;5.17;4.77;;;3.70;99.90;;;;;;5096961;28;20173;-59
2022/03/31 06:15:19;;;;;;;4.80;4.40;;;3.80;99.90;;;;;;5096684;28;20189;-59
2022/03/31 06:17:46;;;;;;;4.80;4.40;;;3.80;99.90;;;;;;5096604;28;20277;-59
2022/03/31 06:20:13;;;;;;;4.80;4.40;;;3.80;99.90;;;;;;5096514;28;20639;-59
2022/03/31 06:22:39;;;;;;;3.90;3.60;;;3.90;99.90;;;;;;5078261;28;20256;-59
2022/03/31 06:25:06;;;;;;;2.90;2.70;;;3.90;99.90;;;;;;5096534;28;20695;-59
2022/03/31 06:27:33;;;;;;;3.63;2.80;;;3.90;99.90;;;;;;5096431;28;20173;-59
2022/03/31 06:29:59;;;;;;;3.50;3.20;;;3.90;99.90;;;;;;5096445;28;20165;-59
2022/03/31 06:32:25;;;;;;;3.10;2.90;;;4.00;99.90;;;;;;5096345;28;20185;-59
2022/03/31 06:34:51;;;;;;;3.57;3.23;;;4.10;99.90;;;;;;5096235;28;20261;-59
2022/03/31 06:37:17;;;;;;;4.00;3.70;;;4.10;99.90;;;;;;5096132;28;20587;-59
2022/03/31 06:39:42;;;;;;;3.90;3.60;;;4.10;99.90;;;;;;5096318;28;20201;-59
2022/03/31 06:42:08;;;;;;;3.40;3.10;;;4.10;99.90;;;;;;5078243;28;20208;-59
2022/03/31 06:44:34;;;;;;;3.30;3.00;;;4.20;99.90;;;;;;5096211;28;20166;-59
2022/03/31 06:46:59;;;;;;;2.70;2.50;;;4.10;99.90;;;;;;5095955;28;20209;-59
2022/03/31 06:49:25;;;;;;;6.00;3.00;;;4.10;99.90;;;;;;5078021;28;20177;-59
2022/03/31 06:51:51;;;;;;;3.20;2.90;;;4.20;99.90;;;;;;5095772;28;20249;-59
2022/03/31 06:54:18;;;;;;;3.40;3.10;;;4.30;99.90;;;;;;5095990;28;20255;-59
2022/03/31 06:56:44;;;;;;;3.10;2.73;;;4.40;99.90;;;;;;5061742;28;20177;-59
2022/03/31 06:59:10;;;;;;;3.53;2.60;;;4.40;99.90;;;;;;5095822;28;20635;-60
2022/03/31 07:01:35;;;;;;;2.60;2.37;;;4.40;99.90;;;;;;5095990;28;20177;-59
2022/03/31 07:04:01;;;;;;;3.00;2.70;;;4.20;99.90;;;;;;5095698;28;20188;-59
2022/03/31 07:06:27;;;;;;;3.50;2.27;;;4.20;99.90;;;;;;5095526;28;20200;-59
2022/03/31 07:08:53;;;;;;;2.93;2.73;;;4.20;99.90;;;;;;5095754;28;20177;-59
2022/03/31 07:11:18;;;;;;;3.60;2.70;;;4.20;99.90;;;;;;5077476;28;20177;-59
2022/03/31 07:13:44;;;;;;;3.33;3.03;;;4.20;99.90;;;;;;5095481;28;20177;-59
2022/03/31 07:16:11;;;;;;;4.23;3.83;;;4.30;99.90;;;;;;5094682;28;20181;-59
2022/03/31 07:18:37;;;;;;;6.13;5.63;;;4.20;99.90;;;;;;5095400;28;20168;-59
2022/03/31 07:21:02;;;;;;;4.23;3.93;;;4.30;99.90;;;;;;5095298;28;20646;-59
2022/03/31 07:23:28;;;;;;;4.67;4.27;;;4.40;99.90;;;;;;5095508;28;20173;-59
2022/03/31 07:25:55;;;;;;;4.70;4.30;;;4.50;99.90;;;;;;5095260;28;20682;-59
2022/03/31 07:28:21;;;;;;;4.43;4.03;;;4.50;99.90;;;;;;5095304;28;20173;-59
2022/03/31 07:30:47;;;;;;;4.07;3.67;;;4.50;99.90;;;;;;5077164;28;20226;-59
2022/03/31 07:33:13;;;;;;;5.13;3.67;;;4.50;99.90;;;;;;5094910;28;20623;-59
2022/03/31 07:35:41;;;;;;;3.63;3.07;;;4.50;99.90;;;;;;5095069;28;20184;-59
2022/03/31 07:38:07;;;;;;;5.03;3.40;;;4.30;99.90;;;;;;5095126;28;20267;-59
2022/03/31 07:40:33;;;;;;;3.17;2.97;;;4.40;99.90;;;;;;5095025;28;20263;-59
2022/03/31 07:42:59;;;;;;;3.30;2.93;;;4.50;99.90;;;;;;5095018;28;20211;-59
2022/03/31 07:45:25;;;;;;;3.50;3.20;;;4.50;99.90;;;;;;5094883;28;20208;-59
2022/03/31 07:47:51;;;;;;;3.40;3.20;;;4.60;99.90;;;;;;5094693;28;20212;-59
2022/03/31 07:50:18;;;;;;;3.10;2.80;;;4.70;99.90;;;;;;5094702;28;20193;-59
2022/03/31 07:52:44;;;;;;;4.27;2.90;;;4.80;99.90;;;;;;5094702;28;20654;-59
2022/03/31 07:55:14;;;;;;;2.77;2.57;;;4.70;99.90;;;;;;5095058;28;20177;-59
2022/03/31 07:57:40;;;;;;;2.97;2.40;;;4.80;99.90;;;;;;5094670;28;20303;-58
2022/03/31 08:00:08;;;;;;;3.10;2.80;;;4.70;99.90;;;;;;5094537;28;20624;-58
2022/03/31 08:02:34;;;;;;;3.17;2.80;;;4.70;99.90;;;;;;5094452;28;20302;-58
2022/03/31 08:04:59;;;;;;;3.90;3.50;;;4.60;99.90;;;;;;5094657;28;20184;-58
2022/03/31 08:07:25;;;;;;;3.20;2.83;;;4.60;99.90;;;;;;5094597;28;20174;-58
2022/03/31 08:09:51;;;;;;;5.30;3.97;;;4.60;99.90;;;;;;5094454;28;20550;-59
2022/03/31 08:12:17;;;;;;;3.97;3.67;;;4.60;99.90;;;;;;5094347;28;20260;-59
2022/03/31 08:14:43;;;;;;;4.87;2.20;;;4.60;99.90;;;;;;5094228;28;20172;-59
2022/03/31 08:17:09;;;;;;;2.70;2.50;;;4.70;99.90;;;;;;5094194;28;20708;-59
2022/03/31 08:19:35;;;;;;;3.07;2.40;;;4.90;99.90;;;;;;5094256;28;20259;-59
2022/03/31 08:22:01;;;;;;;2.70;2.50;;;5.00;99.90;;;;;;5094328;28;20528;-59
2022/03/31 08:24:28;;;;;;;4.90;2.93;;;5.00;99.90;;;;;;5094062;28;20635;-59
2022/03/31 08:26:54;;;;;;;3.80;2.90;;;5.10;99.90;;;;;;5094058;28;20209;-59
2022/03/31 08:29:19;;;;;;;3.73;3.23;;;5.20;99.90;;;;;;5093904;28;20174;-58
2022/03/31 08:31:46;;;;;;;3.40;2.50;;;5.30;99.90;;;;;;5093907;28;20181;-58
2022/03/31 08:34:12;;;;;;;3.10;2.60;;;5.20;99.90;;;;;;5059428;28;20187;-59
2022/03/31 08:36:37;;;;;;;2.80;2.50;;;5.40;99.90;;;;;;5094068;28;20170;-59
2022/03/31 08:39:07;;;;;;;2.90;2.60;;;5.40;99.90;;;;;;5093902;28;20195;-60
2022/03/31 08:41:33;;;;;;;3.20;2.85;;;5.60;99.90;;;;;;5093758;28;20288;-59
2022/03/31 08:43:59;;;;;;;2.87;2.43;;;5.70;99.90;;;;;;5093894;28;20196;-59
2022/03/31 08:46:33;;;;;;;3.35;2.78;;;5.90;99.90;;;;;;5093590;28;20615;-60
2022/03/31 08:49:00;;;;;;;2.78;2.47;;;6.00;99.90;;;;;;5093877;28;20188;-59
2022/03/31 08:51:26;;;;;;;3.63;3.00;;;6.10;99.90;;;;;;5093614;28;20173;-60
2022/03/31 08:53:52;;;;;;;2.40;2.20;;;6.30;99.90;;;;;;5093542;28;20515;-59
2022/03/31 08:56:17;;;;;;;3.22;2.67;;;6.40;99.90;;;;;;5075514;28;20181;-59
2022/03/31 08:58:45;;;;;;;3.00;2.80;;;6.30;99.90;;;;;;5093493;28;20252;-59
2022/03/31 09:01:17;;;;;;;2.47;2.08;;;6.20;99.90;;;;;;5093509;28;20205;-58
2022/03/31 09:03:43;;;;;;;2.72;2.30;;;6.30;99.90;;;;;;5093480;28;20197;-59
2022/03/31 09:06:30;;;;;;;2.05;1.83;;;6.30;99.90;;;;;;5093416;28;20273;-58
2022/03/31 09:08:56;;;;;;;2.17;1.98;;;6.10;99.90;;;;;;5093448;28;20169;-59
2022/03/31 09:11:30;;;;;;;2.00;1.80;;;6.00;99.90;;;;;;5093343;28;20169;-58
2022/03/31 09:13:58;;;;;;;2.58;1.90;;;5.90;99.90;;;;;;5093440;28;20164;-59
2022/03/31 09:16:40;;;;;;;2.03;1.90;;;5.90;99.90;;;;;;5093398;28;20178;-58
2022/03/31 09:19:10;;;;;;;2.70;1.70;;;5.80;99.90;;;;;;5093405;28;20642;-58
2022/03/31 09:22:00;;;;;;;2.55;2.00;;;5.80;99.90;;;;;;5093352;28;20169;-58
2022/03/31 09:24:27;;;;;;;2.57;1.97;;;5.70;99.90;;;;;;5093338;28;20267;-59
2022/03/31 09:26:54;;;;;;;2.47;2.22;;;5.80;99.90;;;;;;5093090;28;20205;-59
2022/03/31 09:29:24;;;;;;;3.03;2.72;;;5.80;99.90;;;;;;5093227;28;20172;-58
2022/03/31 09:31:54;;;;;;;3.63;2.60;;;6.20;99.90;;;;;;5093179;28;20579;-58
2022/03/31 09:34:20;;;;;;;3.70;2.33;;;6.50;99.90;;;;;;5092947;28;20181;-59
2022/03/31 09:36:51;;;;;;;2.90;2.50;;;6.90;99.90;;;;;;5093094;28;20178;-59
2022/03/31 09:39:17;;;;;;;4.10;2.03;;;6.90;99.90;;;;;;5093733;28;20242;-59
2022/03/31 09:41:47;;;;;;;2.30;2.10;;;7.00;99.90;;;;;;5079202;28;20179;-59
2022/03/31 09:44:15;;;;;;;2.08;1.88;;;6.90;99.90;;;;;;5097336;28;20173;-59
2022/03/31 09:46:42;;;;;;;3.83;2.00;;;6.80;99.90;;;;;;5097052;28;20236;-59
2022/03/31 09:49:11;;;;;;;3.15;2.30;;;6.40;99.90;;;;;;5097306;28;20643;-58
2022/03/31 09:51:37;;;;;;;4.40;2.20;;;6.50;99.90;;;;;;5097272;28;20162;-58
2022/03/31 09:54:03;;;;;;;5.50;4.47;;;6.60;99.90;;;;;;5097370;28;20176;-59
2022/03/31 09:56:30;;;;;;;6.00;3.05;;;6.40;99.90;;;;;;5097040;28;20180;-58
2022/03/31 09:59:02;;;;;;;2.83;2.28;;;6.50;99.90;;;;;;5097026;28;20197;-58
2022/03/31 10:01:29;;;;;;;8.43;7.38;;;6.70;99.90;;;;;;5096849;28;20230;-58
2022/03/31 10:03:56;;;;;;;10.93;8.57;;;6.50;99.90;;;;;;5096776;28;20577;-59
2022/03/31 10:06:24;;;;;;;3.33;3.03;;;6.70;99.90;;;;;;5096926;28;20262;-59
2022/03/31 10:08:51;;;;;;;5.80;4.28;;;6.90;99.90;;;;;;5096795;28;20173;-59
2022/03/31 10:11:22;;;;;;;3.53;3.22;;;7.10;99.90;;;;;;5096783;28;20182;-58
2022/03/31 10:14:07;;;;;;;5.30;3.42;;;7.20;99.90;;;;;;5096595;28;20252;-59
2022/03/31 10:16:50;;;;;;;3.22;2.92;;;7.20;99.90;;;;;;5096645;28;20300;-59
2022/03/31 10:19:27;;;;;;;5.30;4.05;;;7.10;99.90;;;;;;5096755;28;20165;-58
2022/03/31 10:25:05;;;;;;;7.47;6.70;;;6.70;99.90;;;;;;5096665;28;20719;-59
2022/03/31 10:27:36;;;;;;;7.20;6.60;;;6.60;99.90;;;;;;5096285;28;20623;-59
2022/03/31 10:30:14;;;;;;;6.63;6.13;;;6.60;99.90;;;;;;5096438;28;20200;-59
2022/03/31 10:32:58;;;;;;;8.98;8.18;;;6.50;99.90;;;;;;5078078;28;20223;-59
2022/03/31 10:35:39;;;;;;;11.18;9.55;;;6.50;99.90;;;;;;5096404;28;20562;-59
2022/03/31 10:38:15;;;;;;;6.82;5.82;;;6.70;99.90;;;;;;5096256;28;20598;-59
2022/03/31 10:40:42;;;;;;;11.82;9.25;;;6.90;99.90;;;;;;5096273;28;20182;-59
2022/03/31 10:43:19;;;;;;;4.82;4.43;;;7.10;99.90;;;;;;5096029;28;20238;-59
2022/03/31 10:45:45;;;;;;;9.38;5.35;;;7.50;99.90;;;;;;5096311;28;20200;-59
2022/03/31 10:48:19;;;;;;;6.32;4.20;;;7.30;99.90;;;;;;5077915;28;20180;-59
2022/03/31 10:50:46;;;;;;;5.13;4.28;;;7.60;99.90;;;;;;5095147;28;20163;-59
2022/03/31 10:53:13;;;;;;;4.40;4.00;;;7.50;99.90;;;;;;5095453;28;20170;-59
2022/03/31 10:55:42;;;;;;;4.28;3.92;;;7.70;99.90;;;;;;5095747;28;20170;-59
2022/03/31 10:58:25;;;;;;;4.22;3.83;;;7.80;99.90;;;;;;5095980;28;20169;-59
2022/03/31 11:00:52;;;;;;;5.47;4.97;;;8.00;99.90;;;;;;5096087;28;20271;-59
2022/03/31 11:03:19;;;;;;;5.07;4.57;;;8.00;99.90;;;;;;5095787;28;20185;-58
2022/03/31 11:05:45;;;;;;;4.00;3.70;;;7.80;99.90;;;;;;5095564;28;20197;-59
2022/03/31 11:08:16;;;;;;;4.78;4.00;;;7.70;99.90;;;;;;5095555;28;20173;-59
2022/03/31 11:10:52;;;;;;;3.83;3.30;;;7.70;99.90;;;;;;5095802;28;20193;-59
2022/03/31 11:13:18;;;;;;;3.90;3.58;;;7.70;99.90;;;;;;5095656;28;20161;-58
2022/03/31 11:15:54;;;;;;;3.97;3.55;;;7.70;99.90;;;;;;5095509;28;20227;-58
2022/03/31 11:18:21;;;;;;;4.35;3.70;;;7.60;99.90;;;;;;5095376;28;20201;-59
2022/03/31 11:20:50;;;;;;;5.05;4.30;;;7.50;99.90;;;;;;5095595;28;20230;-59
2022/03/31 11:23:16;;;;;;;5.00;4.60;;;7.60;99.90;;;;;;5095459;28;20643;-59
2022/03/31 11:25:44;;;;;;;3.88;3.58;;;7.70;99.90;;;;;;5095316;28;20200;-59
2022/03/31 11:28:12;;;;;;;3.35;3.15;;;7.80;99.90;;;;;;5095347;28;20511;-59
2022/03/31 11:30:40;;;;;;;3.47;3.17;;;7.90;99.90;;;;;;5095156;28;20268;-59
2022/03/31 11:33:09;;;;;;;4.20;3.90;;;7.80;99.90;;;;;;5095183;28;20182;-58
2022/03/31 11:35:35;;;;;;;4.28;3.97;;;8.00;99.90;;;;;;5095269;28;20188;-58
2022/03/31 11:38:03;;;;;;;5.70;5.25;;;7.80;99.90;;;;;;5095153;28;20174;-59
2022/03/31 11:40:32;;;;;;;5.22;4.82;;;7.90;99.90;;;;;;5095140;28;20216;-59
2022/03/31 11:43:00;;;;;;;4.10;3.70;;;7.90;99.90;;;;;;5095063;28;20196;-59
2022/03/31 11:45:48;;;;;;;3.55;3.28;;;7.80;99.90;;;;;;5094734;28;20189;-59
2022/03/31 11:48:13;;;;;;;2.63;2.45;;;7.80;99.90;;;;;;5095061;28;20170;-59
2022/03/31 11:50:52;;;;;;;2.90;2.13;;;7.60;99.90;;;;;;5094863;28;20174;-59
2022/03/31 11:53:25;;;;;;;2.00;1.90;;;7.70;99.90;;;;;;5095022;28;20178;-59
2022/03/31 11:56:06;;;;;;;2.55;1.60;;;7.80;99.90;;;;;;5094689;28;20204;-59
2022/03/31 11:58:43;;;;;;;2.10;1.65;;;7.80;99.90;;;;;;5094915;28;20251;-59
2022/03/31 12:01:09;;;;;;;2.05;1.58;;;7.90;99.90;;;;;;5094752;28;20265;-59
2022/03/31 12:03:36;;;;;;;2.35;1.38;;;8.10;99.90;;;;;;5094150;28;20594;-59
2022/03/31 12:06:04;;;;;;;3.47;1.90;;;8.20;99.90;;;;;;5094313;28;20308;-59
2022/03/31 12:08:31;;;;;;;1.75;1.65;;;8.10;99.90;;;;;;5094276;28;20170;-59
2022/03/31 12:10:57;;;;;;;1.95;1.80;;;8.00;99.90;;;;;;5094522;28;20197;-59
2022/03/31 12:13:25;;;;;;;2.70;1.60;;;8.00;99.90;;;;;;5094345;28;20203;-59
2022/03/31 12:16:02;;;;;;;1.70;1.60;;;8.00;99.90;;;;;;5094414;28;20165;-59
2022/03/31 12:18:30;;;;;;;2.00;1.80;;;8.00;99.90;;;;;;5094314;28;20176;-59
2022/03/31 12:20:59;;;;;;;1.80;1.70;;;8.00;99.90;;;;;;5094107;28;20571;-59
2022/03/31 12:23:26;;;;;;;2.00;1.90;;;8.10;99.90;;;;;;5094332;28;20481;-59
2022/03/31 12:25:53;;;;;;;2.10;2.00;;;8.10;99.90;;;;;;5094096;28;20241;-59
2022/03/31 12:28:23;;;;;;;2.03;1.90;;;8.20;99.90;;;;;;5094419;28;20253;-59
2022/03/31 12:30:51;;;;;;;1.98;1.70;;;8.20;99.90;;;;;;5094245;28;20560;-59
2022/03/31 12:33:20;;;;;;;1.75;1.65;;;8.10;99.90;;;;;;5093909;28;20177;-59
2022/03/31 12:36:03;;;;;;;1.58;1.40;;;8.20;99.90;;;;;;5094082;28;20181;-59
2022/03/31 12:38:45;;;;;;;1.75;1.38;;;8.20;99.90;;;;;;5093976;28;20639;-59
2022/03/31 12:41:24;;;;;;;1.80;1.60;;;8.30;99.90;;;;;;5093924;28;20605;-59
2022/03/31 12:44:15;;;;;;;2.78;1.90;;;8.20;99.90;;;;;;5093745;28;20242;-59
2022/03/31 12:46:45;;;;;;;2.15;1.95;;;8.30;99.90;;;;;;5093863;28;20220;-59
2022/03/31 12:49:12;;;;;;;2.50;2.30;;;8.30;99.90;;;;;;5093992;28;20689;-59
2022/03/31 12:51:48;;;;;;;2.35;2.20;;;8.40;99.90;;;;;;5093742;28;20165;-59
2022/03/31 12:54:35;;;;;;;5.80;4.88;;;8.20;99.90;;;;;;5093669;28;20172;-59
2022/03/31 12:57:06;;;;;;;3.47;3.20;;;8.10;99.90;;;;;;5093796;28;20253;-59
2022/03/31 12:59:34;;;;;;;3.53;2.95;;;8.00;99.90;;;;;;5093679;28;20566;-59
2022/03/31 13:02:08;;;;;;;3.95;3.72;;;8.10;99.90;;;;;;5093639;28;20165;-59
2022/03/31 13:04:40;;;;;;;3.83;2.40;;;8.50;99.90;;;;;;5093729;28;20184;-58